Time;durP1;ratioP1;P1;durP2;ratioP2;P2;SDS_P1;SDS_P2;PMS_P1;PMS_P2;Temp;Humidity;BMP_temperature;BMP_pressure;BME280_temperature;BME280_humidity;BME280_pressure;Samples;Min_cycle;Max_cycle;Signal;HPM_P1;HPM_P2
2021/12/12 00:00:59;;;;;;;95.47;48.40;;;3.40;99.90;;;;;;5009781;28;20132;-30
2021/12/12 00:03:38;;;;;;;83.27;46.60;;;3.40;99.90;;;;;;5010856;28;20042;-30
2021/12/12 00:06:12;;;;;;;89.03;44.43;;;3.40;99.90;;;;;;4992018;28;20049;-30
2021/12/12 00:08:41;;;;;;;88.17;44.77;;;3.50;99.90;;;;;;4985110;28;20555;-29
2021/12/12 00:11:11;;;;;;;100.57;45.70;;;3.40;99.90;;;;;;5009880;28;20121;-29
2021/12/12 00:13:47;;;;;;;84.60;44.77;;;3.50;99.90;;;;;;5010433;28;20053;-30
2021/12/12 00:16:13;;;;;;;75.97;40.00;;;3.50;99.90;;;;;;5001864;28;20051;-30
2021/12/12 00:18:40;;;;;;;80.37;41.70;;;3.50;99.90;;;;;;5002720;28;20050;-29
2021/12/12 00:21:08;;;;;;;86.37;44.03;;;3.60;99.90;;;;;;5011201;28;20884;-29
2021/12/12 00:23:34;;;;;;;78.77;40.77;;;3.60;99.90;;;;;;5010251;28;20053;-29
2021/12/12 00:26:00;;;;;;;70.40;39.67;;;3.50;99.90;;;;;;4998957;28;20074;-29
2021/12/12 00:28:28;;;;;;;69.67;41.03;;;3.60;99.90;;;;;;4975364;28;20065;-29
2021/12/12 00:30:59;;;;;;;76.50;41.33;;;3.60;99.90;;;;;;4989980;28;20054;-29
2021/12/12 00:33:26;;;;;;;76.32;41.20;;;3.60;99.90;;;;;;4998555;28;20084;-29
2021/12/12 00:35:51;;;;;;;73.10;38.63;;;3.60;99.90;;;;;;5010819;28;20142;-29
2021/12/12 00:38:24;;;;;;;72.27;39.20;;;3.70;99.90;;;;;;4995194;28;20141;-30
2021/12/12 00:40:53;;;;;;;82.93;42.03;;;3.70;99.90;;;;;;5010889;28;20038;-29
2021/12/12 00:43:29;;;;;;;81.27;38.57;;;3.70;99.90;;;;;;5009862;28;20413;-29
2021/12/12 00:45:59;;;;;;;73.27;37.30;;;3.70;99.90;;;;;;5010500;28;20045;-30
2021/12/12 00:48:28;;;;;;;68.57;37.03;;;3.70;99.90;;;;;;4985040;28;20049;-29
2021/12/12 00:50:54;;;;;;;71.60;37.50;;;3.70;99.90;;;;;;4989781;28;20042;-30
2021/12/12 00:53:22;;;;;;;79.23;38.57;;;3.70;99.90;;;;;;4999989;28;20100;-30
2021/12/12 00:55:49;;;;;;;70.43;37.30;;;3.80;99.90;;;;;;5010682;28;20100;-30
2021/12/12 00:58:17;;;;;;;67.80;37.90;;;3.80;99.90;;;;;;4992860;28;20081;-29
2021/12/12 01:00:49;;;;;;;69.77;37.67;;;3.80;99.90;;;;;;5010005;28;20100;-29
2021/12/12 01:03:18;;;;;;;68.53;36.67;;;3.80;99.90;;;;;;5009692;28;20125;-29
2021/12/12 01:05:46;;;;;;;65.50;36.43;;;3.80;99.90;;;;;;5010267;28;20045;-29
2021/12/12 01:08:14;;;;;;;68.50;36.43;;;3.80;99.90;;;;;;4994482;28;20048;-29
2021/12/12 01:10:51;;;;;;;64.03;35.57;;;3.80;99.90;;;;;;5009624;28;20042;-29
2021/12/12 01:13:17;;;;;;;68.53;37.03;;;3.80;99.90;;;;;;5009739;28;20254;-29
2021/12/12 01:15:53;;;;;;;64.70;35.33;;;3.90;99.90;;;;;;5008374;28;20061;-30
2021/12/12 01:18:28;;;;;;;68.63;36.43;;;3.80;99.90;;;;;;4993921;28;20497;-29
2021/12/12 01:20:59;;;;;;;65.63;35.93;;;3.90;99.90;;;;;;5009922;28;20137;-30
2021/12/12 01:23:38;;;;;;;65.85;36.03;;;3.90;99.90;;;;;;5009136;28;20048;-30
2021/12/12 01:26:07;;;;;;;63.67;35.97;;;3.90;99.90;;;;;;5009811;28;20393;-30
2021/12/12 01:28:37;;;;;;;73.93;36.83;;;3.90;99.90;;;;;;4999956;28;20084;-29
2021/12/12 01:31:07;;;;;;;66.00;35.63;;;3.90;99.90;;;;;;5008362;28;20049;-30
2021/12/12 01:33:36;;;;;;;71.80;36.47;;;3.90;99.90;;;;;;5009305;28;20046;-29
2021/12/12 01:36:12;;;;;;;64.30;34.83;;;3.90;99.90;;;;;;5009201;28;20500;-30
2021/12/12 01:38:53;;;;;;;62.00;33.90;;;3.90;99.90;;;;;;5002229;28;20129;-29
2021/12/12 01:42:08;;;;;;;67.97;33.78;;;3.90;99.90;;;;;;5009635;28;20038;-29
2021/12/12 01:44:53;;;;;;;62.67;34.57;;;3.90;99.90;;;;;;5018896;28;20512;-30
2021/12/12 01:47:20;;;;;;;69.93;35.30;;;4.00;99.90;;;;;;5013163;28;20231;-30
2021/12/12 01:49:49;;;;;;;64.60;35.33;;;4.00;99.90;;;;;;5009870;28;20054;-29
2021/12/12 01:52:20;;;;;;;69.40;36.17;;;4.00;99.90;;;;;;5009781;28;20746;-29
2021/12/12 01:54:49;;;;;;;69.00;33.80;;;4.00;99.90;;;;;;5029498;28;20209;-29
2021/12/12 01:57:25;;;;;;;68.93;35.80;;;4.00;99.90;;;;;;5012868;28;20538;-29
2021/12/12 01:59:53;;;;;;;69.47;35.50;;;4.00;99.90;;;;;;5028918;28;20057;-29
2021/12/12 02:02:31;;;;;;;60.70;34.33;;;4.00;99.90;;;;;;5027639;28;20046;-29
2021/12/12 02:05:02;;;;;;;64.13;34.43;;;4.10;99.90;;;;;;5029221;28;20168;-30
2021/12/12 02:07:32;;;;;;;67.82;35.03;;;4.00;99.90;;;;;;5011132;28;20091;-29
2021/12/12 02:10:01;;;;;;;75.20;34.60;;;4.00;99.90;;;;;;5029235;28;20044;-30
2021/12/12 02:12:27;;;;;;;67.43;34.83;;;4.10;99.90;;;;;;5027980;28;20037;-29
2021/12/12 02:14:56;;;;;;;61.17;33.60;;;4.10;99.90;;;;;;5027182;28;20475;-29
2021/12/12 02:17:34;;;;;;;63.73;33.40;;;4.10;99.90;;;;;;5011232;28;20064;-29
2021/12/12 02:20:16;;;;;;;75.00;34.30;;;4.10;99.90;;;;;;5028483;28;20046;-29
2021/12/12 02:23:03;;;;;;;67.63;32.72;;;4.10;99.90;;;;;;5027821;28;20041;-30
2021/12/12 02:36:44;;;;;;;61.20;31.73;;;4.30;99.90;;;;;;4992925;28;20050;-30
2021/12/12 02:39:15;;;;;;;63.20;31.23;;;4.30;99.90;;;;;;5026819;28;20107;-29
2021/12/12 02:41:57;;;;;;;69.40;32.50;;;4.30;99.90;;;;;;5028231;28;20045;-30
2021/12/12 02:44:28;;;;;;;62.40;31.65;;;4.30;99.90;;;;;;5027571;28;20144;-29
2021/12/12 02:46:57;;;;;;;;;;;4.30;99.90;;;;;;5013737;28;20061;-30
2021/12/12 02:49:55;;;;;;;57.60;29.33;;;4.30;99.90;;;;;;5010060;28;20013;-29
2021/12/12 02:52:27;;;;;;;56.80;30.30;;;4.30;99.90;;;;;;5009565;28;20131;-29
2021/12/12 02:54:53;;;;;;;65.30;30.37;;;4.40;99.90;;;;;;5028493;28;20053;-30
2021/12/12 02:57:19;;;;;;;61.43;30.07;;;4.40;99.90;;;;;;5011840;28;20501;-29
2021/12/12 02:59:48;;;;;;;58.27;31.03;;;4.40;99.90;;;;;;5027985;28;20067;-29
2021/12/12 03:02:23;;;;;;;62.67;30.07;;;4.50;99.90;;;;;;5024842;28;20046;-30
2021/12/12 03:04:50;;;;;;;59.80;30.37;;;4.50;99.90;;;;;;5027835;28;20051;-29
2021/12/12 03:07:16;;;;;;;65.23;29.67;;;4.50;99.90;;;;;;5012486;28;20162;-29
2021/12/12 03:09:45;;;;;;;66.67;30.37;;;4.50;99.90;;;;;;5027642;28;20507;-29
2021/12/12 03:12:17;;;;;;;56.40;27.50;;;4.50;99.90;;;;;;5027079;28;20045;-29
2021/12/12 03:14:43;;;;;;;;;;;4.60;99.90;;;;;;5028704;28;20381;-29
2021/12/12 03:17:18;;;;;;;57.53;27.07;;;4.60;99.90;;;;;;5011989;28;20146;-30
2021/12/12 03:19:51;;;;;;;50.17;27.00;;;4.60;99.90;;;;;;5026202;28;20204;-29
2021/12/12 03:22:20;;;;;;;60.03;27.93;;;4.60;99.90;;;;;;5027348;28;20049;-29
2021/12/12 03:24:48;;;;;;;51.00;26.37;;;4.60;99.90;;;;;;5024123;28;20075;-29
2021/12/12 03:27:15;;;;;;;46.77;26.37;;;4.70;99.90;;;;;;4991800;28;20505;-29
2021/12/12 03:29:42;;;;;;;54.33;26.90;;;4.70;99.90;;;;;;5007814;28;20497;-29
2021/12/12 03:32:12;;;;;;;48.23;25.13;;;4.70;99.90;;;;;;5007567;28;20587;-29
2021/12/12 03:34:42;;;;;;;46.37;25.23;;;4.70;99.90;;;;;;5008110;28;20057;-29
2021/12/12 03:37:12;;;;;;;55.85;25.67;;;4.70;99.90;;;;;;4992740;28;20038;-30
2021/12/12 03:39:41;;;;;;;52.00;25.93;;;4.70;99.90;;;;;;5006713;28;20393;-30
2021/12/12 03:42:15;;;;;;;46.47;23.60;;;4.70;99.90;;;;;;5019735;28;20149;-29
2021/12/12 03:44:41;;;;;;;39.13;23.40;;;4.90;99.90;;;;;;5028095;28;20433;-30
2021/12/12 03:47:19;;;;;;;47.77;24.13;;;4.80;99.90;;;;;;5011099;28;20511;-30
2021/12/12 03:49:46;;;;;;;43.53;22.20;;;4.80;99.90;;;;;;5008004;28;20046;-29
2021/12/12 03:52:14;;;;;;;38.40;22.33;;;4.80;99.90;;;;;;5006448;28;20038;-29
2021/12/12 03:54:40;;;;;;;48.90;22.37;;;4.80;99.90;;;;;;5027660;28;20056;-29
2021/12/12 03:57:08;;;;;;;35.23;21.87;;;4.90;99.90;;;;;;5011387;28;20056;-29
2021/12/12 03:59:35;;;;;;;38.63;20.50;;;4.90;99.90;;;;;;5027610;28;20064;-29
2021/12/12 04:02:02;;;;;;;31.23;18.80;;;4.90;99.90;;;;;;5022956;28;20427;-30
2021/12/12 04:04:35;;;;;;;33.20;19.17;;;4.90;99.90;;;;;;5024653;28;20048;-29
2021/12/12 04:07:05;;;;;;;31.53;19.30;;;4.90;99.90;;;;;;5010111;28;20056;-29
2021/12/12 04:09:31;;;;;;;32.53;18.90;;;4.90;99.90;;;;;;5026355;28;20048;-30
2021/12/12 04:12:00;;;;;;;32.63;19.20;;;4.90;99.90;;;;;;5026267;28;20049;-29
2021/12/12 04:14:27;;;;;;;33.77;18.73;;;4.90;99.90;;;;;;5026524;28;20073;-29
2021/12/12 04:16:57;;;;;;;30.87;17.43;;;5.00;99.90;;;;;;5011894;28;20408;-30
2021/12/12 04:19:24;;;;;;;27.77;17.87;;;4.90;99.90;;;;;;5026431;28;20184;-29
2021/12/12 04:21:50;;;;;;;32.47;17.67;;;5.00;99.90;;;;;;5027547;28;20045;-29
2021/12/12 04:24:29;;;;;;;32.63;17.47;;;5.00;99.90;;;;;;5027756;28;20464;-29
2021/12/12 04:26:55;;;;;;;22.30;15.60;;;4.90;99.90;;;;;;5013908;28;20493;-29
2021/12/12 04:29:28;;;;;;;25.63;16.20;;;5.00;99.90;;;;;;5011925;28;20057;-30
2021/12/12 04:31:56;;;;;;;25.53;15.73;;;5.00;99.90;;;;;;5030631;28;20041;-29
2021/12/12 04:34:25;;;;;;;28.60;16.50;;;5.00;99.90;;;;;;5030102;28;20079;-29
2021/12/12 04:36:52;;;;;;;26.87;15.40;;;5.00;99.90;;;;;;5014167;28;20053;-29
2021/12/12 04:39:20;;;;;;;26.00;16.33;;;5.00;99.90;;;;;;5030393;28;20046;-29
2021/12/12 04:41:49;;;;;;;24.33;15.33;;;5.00;99.90;;;;;;5030380;28;20404;-29
2021/12/12 04:44:25;;;;;;;20.50;15.37;;;5.00;99.90;;;;;;5029530;28;20045;-29
2021/12/12 04:49:55;;;;;;;22.93;15.30;;;5.00;99.90;;;;;;5010381;28;20108;-29
2021/12/12 04:52:45;;;;;;;28.93;18.37;;;5.00;99.90;;;;;;5011898;28;20053;-29
2021/12/12 04:55:27;;;;;;;23.73;15.50;;;5.00;99.90;;;;;;5025863;28;20064;-29
2021/12/12 04:58:17;;;;;;;20.45;14.40;;;5.00;99.90;;;;;;5012743;28;20779;-29
2021/12/12 05:01:08;;;;;;;20.70;13.87;;;5.00;99.90;;;;;;5030399;28;20046;-29
2021/12/12 05:03:49;;;;;;;15.18;12.02;;;5.00;99.90;;;;;;5028708;28;20115;-29
2021/12/12 05:06:39;;;;;;;23.53;14.90;;;5.00;99.90;;;;;;5021129;28;20376;-30
2021/12/12 05:09:27;;;;;;;17.83;12.93;;;5.00;99.90;;;;;;5027521;28;20053;-29
2021/12/12 05:12:01;;;;;;;16.60;12.67;;;5.00;99.90;;;;;;5030084;28;20172;-29
2021/12/12 05:14:33;;;;;;;17.57;13.13;;;5.10;99.90;;;;;;5027782;28;20488;-30
2021/12/12 05:17:31;;;;;;;20.23;12.87;;;5.10;99.90;;;;;;5014461;28;20403;-30
2021/12/12 05:20:02;;;;;;;20.60;12.93;;;5.10;99.90;;;;;;5019413;28;20088;-29
2021/12/12 05:22:41;;;;;;;18.88;13.00;;;5.10;99.90;;;;;;5029459;28;20495;-29
2021/12/12 05:25:13;;;;;;;18.27;12.60;;;5.10;99.90;;;;;;5029603;28;20075;-29
2021/12/12 05:27:39;;;;;;;18.20;13.10;;;5.10;99.90;;;;;;5013783;28;20034;-30
2021/12/12 05:30:13;;;;;;;18.80;12.47;;;5.30;99.90;;;;;;5028150;28;20099;-29
2021/12/12 05:32:40;;;;;;;18.00;12.53;;;5.20;99.90;;;;;;5027559;28;20056;-29
2021/12/12 05:35:08;;;;;;;17.87;12.33;;;5.20;99.90;;;;;;5028059;28;20160;-29
2021/12/12 05:37:35;;;;;;;18.77;13.43;;;5.20;99.90;;;;;;5014197;28;20042;-29
2021/12/12 05:40:04;;;;;;;19.30;13.57;;;5.20;99.90;;;;;;5029448;28;20041;-29
2021/12/12 05:42:31;;;;;;;19.70;14.20;;;5.20;99.90;;;;;;5028394;28;20052;-29
2021/12/12 05:44:59;;;;;;;18.40;14.17;;;5.20;99.90;;;;;;5029636;28;20172;-29
2021/12/12 05:47:25;;;;;;;26.53;14.73;;;5.30;99.90;;;;;;5012250;28;20041;-30
2021/12/12 05:49:51;;;;;;;20.33;14.23;;;5.30;99.90;;;;;;5009754;28;20048;-29
2021/12/12 05:52:21;;;;;;;23.70;14.57;;;5.30;99.90;;;;;;5009126;28;20488;-29
2021/12/12 05:54:48;;;;;;;21.00;14.67;;;5.30;99.90;;;;;;5028143;28;20500;-29
2021/12/12 05:57:19;;;;;;;21.73;15.23;;;5.30;99.90;;;;;;5012897;28;20048;-30
2021/12/12 05:59:46;;;;;;;16.25;11.57;;;5.40;99.90;;;;;;5027878;28;20420;-30
2021/12/12 06:02:13;;;;;;;22.63;15.77;;;5.30;99.90;;;;;;5028637;28;20115;-29
2021/12/12 06:04:39;;;;;;;24.67;15.20;;;5.30;99.90;;;;;;5019727;28;20120;-30
2021/12/12 06:07:08;;;;;;;20.93;15.07;;;5.40;99.90;;;;;;4995706;28;20437;-30
2021/12/12 06:09:34;;;;;;;22.20;15.30;;;5.40;99.90;;;;;;5024915;28;20049;-30
2021/12/12 06:12:03;;;;;;;22.83;15.30;;;5.40;99.90;;;;;;5028220;28;20574;-30
2021/12/12 06:14:30;;;;;;;24.70;16.43;;;5.40;99.90;;;;;;5028044;28;20052;-29
2021/12/12 06:16:59;;;;;;;22.50;15.47;;;5.50;99.90;;;;;;5013250;28;20057;-30
2021/12/12 06:19:25;;;;;;;23.27;16.60;;;5.40;99.90;;;;;;5027712;28;20135;-30
2021/12/12 06:21:54;;;;;;;23.00;15.37;;;5.50;99.90;;;;;;5028714;28;20049;-29
2021/12/12 06:24:22;;;;;;;22.20;15.50;;;5.50;99.90;;;;;;5027617;28;20051;-30
2021/12/12 06:26:47;;;;;;;22.33;15.53;;;5.60;99.90;;;;;;4994776;28;20134;-30
2021/12/12 06:29:14;;;;;;;25.90;16.97;;;5.60;99.90;;;;;;5008110;28;20062;-30
2021/12/12 06:31:44;;;;;;;21.33;15.30;;;5.50;99.90;;;;;;5009020;28;20386;-30
2021/12/12 06:34:11;;;;;;;19.43;15.33;;;5.60;99.90;;;;;;5006280;28;20506;-29
2021/12/12 06:36:38;;;;;;;20.57;15.53;;;5.60;99.90;;;;;;4993734;28;20056;-29
2021/12/12 06:39:08;;;;;;;22.33;16.10;;;5.60;99.90;;;;;;5005680;28;20111;-30
2021/12/12 06:41:35;;;;;;;22.00;14.83;;;5.60;99.90;;;;;;5018808;28;20045;-30
2021/12/12 06:44:08;;;;;;;20.07;15.67;;;5.70;99.90;;;;;;5026392;28;20058;-29
2021/12/12 06:46:36;;;;;;;23.30;16.20;;;5.70;99.90;;;;;;5012585;28;20049;-30
2021/12/12 06:49:04;;;;;;;22.57;16.33;;;5.70;99.90;;;;;;5011439;28;20045;-29
2021/12/12 06:51:33;;;;;;;22.47;16.53;;;5.70;99.90;;;;;;5008637;28;20072;-30
2021/12/12 06:53:59;;;;;;;26.60;16.83;;;5.70;99.90;;;;;;5021876;28;20057;-30
2021/12/12 06:56:27;;;;;;;23.97;16.77;;;5.80;99.90;;;;;;5014610;28;20463;-30
2021/12/12 06:58:57;;;;;;;25.93;17.37;;;5.80;99.90;;;;;;5024251;28;20389;-29
2021/12/12 07:01:27;;;;;;;25.10;18.27;;;5.80;99.90;;;;;;5027823;28;20044;-29
2021/12/12 07:03:54;;;;;;;26.00;18.63;;;5.80;99.90;;;;;;5027428;28;20442;-29
2021/12/12 07:06:23;;;;;;;27.67;18.07;;;5.80;99.90;;;;;;5017262;28;20045;-30
2021/12/12 07:08:50;;;;;;;28.57;19.70;;;5.80;99.90;;;;;;5024008;28;20042;-29
2021/12/12 07:11:18;;;;;;;29.93;19.40;;;5.80;99.90;;;;;;5026687;28;20128;-29
2021/12/12 07:13:46;;;;;;;27.20;18.67;;;5.90;99.90;;;;;;5027013;28;20041;-30
2021/12/12 07:16:13;;;;;;;27.00;19.40;;;5.90;99.90;;;;;;5020187;28;20045;-30
2021/12/12 07:18:39;;;;;;;26.77;19.17;;;5.80;99.90;;;;;;5002850;28;20075;-30
2021/12/12 07:21:08;;;;;;;28.47;18.97;;;5.90;99.90;;;;;;5028063;28;20427;-29
2021/12/12 07:23:35;;;;;;;32.17;19.67;;;5.90;99.90;;;;;;5027063;28;20069;-29
2021/12/12 07:26:03;;;;;;;27.50;18.27;;;5.90;99.90;;;;;;5015731;28;20097;-30
2021/12/12 07:28:30;;;;;;;26.73;18.30;;;5.90;99.90;;;;;;4991937;28;20061;-30
2021/12/12 07:31:08;;;;;;;31.03;19.10;;;6.00;99.90;;;;;;5006604;28;20108;-30
2021/12/12 07:33:35;;;;;;;29.13;18.77;;;6.00;99.90;;;;;;5007419;28;20056;-29
2021/12/12 07:36:03;;;;;;;31.33;19.80;;;6.00;99.90;;;;;;5007784;28;20038;-29
2021/12/12 07:38:31;;;;;;;33.33;20.80;;;6.00;99.90;;;;;;4992625;28;20129;-30
2021/12/12 07:40:59;;;;;;;31.23;19.77;;;6.00;99.90;;;;;;5020227;28;20053;-30
2021/12/12 07:43:27;;;;;;;33.27;20.40;;;6.10;99.90;;;;;;5027027;28;20076;-30
2021/12/12 07:45:53;;;;;;;35.90;20.93;;;6.10;99.90;;;;;;5026797;28;20103;-29
2021/12/12 07:48:20;;;;;;;35.73;20.07;;;6.10;99.90;;;;;;4993654;28;20057;-29
2021/12/12 07:50:46;;;;;;;32.30;20.43;;;6.10;99.90;;;;;;5027688;28;20595;-29
2021/12/12 07:53:13;;;;;;;33.60;20.77;;;6.20;99.90;;;;;;5026715;28;20052;-30
2021/12/12 07:55:39;;;;;;;33.97;20.87;;;6.20;99.90;;;;;;5026198;28;20084;-30
2021/12/12 07:58:07;;;;;;;37.30;21.07;;;6.20;99.90;;;;;;5011315;28;20057;-30
2021/12/12 08:00:33;;;;;;;37.10;20.83;;;6.20;99.90;;;;;;5029100;28;20120;-30
2021/12/12 08:03:00;;;;;;;38.53;22.37;;;6.20;99.90;;;;;;5029175;28;20045;-29
2021/12/12 08:05:28;;;;;;;36.77;21.80;;;6.30;99.90;;;;;;5031094;28;20052;-29
2021/12/12 08:07:58;;;;;;;43.73;23.17;;;6.40;99.90;;;;;;5015450;28;20412;-30
2021/12/12 08:10:24;;;;;;;38.60;22.27;;;6.30;99.90;;;;;;5030897;28;20435;-29
2021/12/12 08:12:50;;;;;;;39.57;22.80;;;6.30;99.90;;;;;;5030597;28;20072;-29
2021/12/12 08:15:17;;;;;;;44.17;24.27;;;6.30;99.90;;;;;;5019253;28;20092;-30
2021/12/12 08:17:44;;;;;;;41.10;23.13;;;6.30;99.90;;;;;;4994850;28;20092;-29
2021/12/12 08:20:14;;;;;;;46.70;23.80;;;6.40;99.90;;;;;;5011223;28;20081;-30
2021/12/12 08:22:40;;;;;;;46.17;23.77;;;6.40;99.90;;;;;;5014293;28;20041;-30
2021/12/12 08:25:08;;;;;;;49.87;24.40;;;6.50;99.90;;;;;;5030687;28;20033;-30
2021/12/12 08:27:34;;;;;;;43.67;24.33;;;6.40;99.90;;;;;;5013427;28;20048;-29
2021/12/12 08:30:01;;;;;;;47.23;25.37;;;6.40;99.90;;;;;;5024426;28;20038;-30
2021/12/12 08:32:27;;;;;;;46.93;24.03;;;6.50;99.90;;;;;;5018517;28;20397;-29
2021/12/12 08:34:53;;;;;;;51.70;26.40;;;6.60;99.90;;;;;;5029671;28;20136;-30
2021/12/12 08:37:19;;;;;;;51.90;26.70;;;6.50;99.90;;;;;;5012568;28;20463;-29
2021/12/12 08:39:45;;;;;;;50.43;26.70;;;6.50;99.90;;;;;;5030318;28;20247;-30
2021/12/12 08:42:13;;;;;;;51.93;27.37;;;6.60;99.90;;;;;;5026484;28;20054;-30
2021/12/12 08:44:39;;;;;;;51.23;27.27;;;6.60;99.90;;;;;;5023874;28;20058;-29
2021/12/12 08:47:08;;;;;;;50.43;27.03;;;6.60;99.90;;;;;;5014078;28;20034;-30
2021/12/12 08:49:36;;;;;;;54.30;27.10;;;6.60;99.90;;;;;;5029328;28;20419;-29
2021/12/12 08:52:07;;;;;;;47.73;26.30;;;6.60;99.90;;;;;;5029945;28;20342;-29
2021/12/12 08:54:36;;;;;;;52.40;27.33;;;6.70;99.90;;;;;;5013239;28;20092;-30
2021/12/12 08:57:20;;;;;;;56.97;27.90;;;6.60;99.90;;;;;;5012661;28;20556;-29
2021/12/12 08:59:48;;;;;;;48.13;25.70;;;6.70;99.90;;;;;;5026726;28;20041;-30
2021/12/12 09:02:18;;;;;;;52.57;28.03;;;6.70;99.90;;;;;;5024649;28;20098;-29
2021/12/12 09:04:52;;;;;;;50.73;27.80;;;6.70;99.90;;;;;;5027386;28;20510;-30
2021/12/12 09:07:23;;;;;;;56.13;28.70;;;6.80;99.90;;;;;;5011834;28;20072;-30
2021/12/12 09:10:12;;;;;;;58.05;30.02;;;6.90;99.90;;;;;;5024156;28;20045;-30
2021/12/12 09:12:45;;;;;;;57.63;29.63;;;6.80;99.90;;;;;;5025474;28;20041;-30
2021/12/12 09:15:13;;;;;;;63.30;29.07;;;6.80;99.90;;;;;;5022430;28;20128;-30
2021/12/12 09:17:54;;;;;;;52.57;26.37;;;6.80;99.90;;;;;;5008918;28;20045;-30
2021/12/12 09:20:36;;;;;;;64.10;29.67;;;6.90;99.90;;;;;;5024695;28;20045;-30
2021/12/12 09:23:09;;;;;;;66.83;30.53;;;6.90;99.90;;;;;;5025547;28;20151;-30
2021/12/12 09:25:49;;;;;;;68.87;31.10;;;7.00;99.90;;;;;;5024127;28;20077;-30
2021/12/12 09:28:37;;;;;;;71.47;31.30;;;7.00;99.90;;;;;;5009948;28;20488;-30
2021/12/12 09:31:31;;;;;;;70.13;31.77;;;7.00;99.90;;;;;;5024648;28;20049;-30
2021/12/12 09:34:26;;;;;;;70.63;31.80;;;7.10;99.90;;;;;;5021459;28;20041;-30
2021/12/12 09:36:58;;;;;;;76.50;33.17;;;7.10;99.90;;;;;;5007211;28;20046;-30
2021/12/12 09:39:38;;;;;;;86.80;34.90;;;7.10;99.90;;;;;;5025635;28;20050;-30
2021/12/12 09:42:13;;;;;;;74.97;32.87;;;7.20;99.90;;;;;;5020164;28;20045;-30
2021/12/12 09:45:03;;;;;;;83.27;34.20;;;7.20;99.90;;;;;;5026889;28;20053;-30
2021/12/12 09:53:46;;;;;;;87.73;35.37;;;7.30;99.90;;;;;;5007674;28;20140;-30
2021/12/12 09:56:21;;;;;;;109.87;37.40;;;7.40;99.90;;;;;;4997235;28;20049;-30
2021/12/12 09:58:55;;;;;;;92.53;36.53;;;7.50;99.90;;;;;;5001881;28;20052;-29
2021/12/12 10:01:23;;;;;;;97.57;36.83;;;7.50;99.90;;;;;;5010904;28;20080;-30
2021/12/12 10:04:03;;;;;;;99.20;36.70;;;7.50;99.90;;;;;;5007180;28;20559;-30
2021/12/12 10:06:36;;;;;;;97.83;37.10;;;7.50;99.90;;;;;;4993354;28;20523;-30
2021/12/12 10:09:19;;;;;;;101.97;35.90;;;7.60;99.90;;;;;;5004297;28;20058;-30
2021/12/12 10:11:45;;;;;;;91.97;35.83;;;7.60;99.90;;;;;;5009518;28;20151;-30
2021/12/12 10:14:22;;;;;;;98.63;34.87;;;7.70;99.90;;;;;;5004916;28;20138;-30
2021/12/12 10:17:11;;;;;;;97.50;36.13;;;7.70;99.90;;;;;;4990285;28;20050;-30
2021/12/12 10:19:50;;;;;;;90.87;34.03;;;7.80;99.90;;;;;;4996367;28;20425;-30
2021/12/12 10:22:56;;;;;;;94.97;33.90;;;7.80;99.90;;;;;;5012830;28;20053;-30
2021/12/12 10:25:30;;;;;;;95.93;34.27;;;7.80;99.90;;;;;;5007581;28;20049;-30
2021/12/12 10:28:09;;;;;;;85.77;34.47;;;7.90;99.90;;;;;;4989227;28;20049;-30
2021/12/12 10:30:43;;;;;;;93.10;34.50;;;7.90;99.90;;;;;;5013767;28;20459;-30
2021/12/12 10:33:21;;;;;;;87.20;35.83;;;7.90;99.90;;;;;;5005095;28;20072;-30
2021/12/12 10:36:13;;;;;;;89.43;33.37;;;8.00;99.90;;;;;;5010113;28;20050;-30
2021/12/12 10:38:58;;;;;;;94.73;36.03;;;8.00;99.90;;;;;;4996956;28;20516;-30
2021/12/12 10:41:28;;;;;;;91.37;34.20;;;8.00;99.90;;;;;;5005517;28;20050;-30
2021/12/12 10:44:02;;;;;;;88.50;33.83;;;8.10;99.90;;;;;;5003079;28;20120;-30
2021/12/12 10:46:51;;;;;;;98.13;34.37;;;8.10;99.90;;;;;;4992587;28;20058;-30
2021/12/12 10:49:40;;;;;;;89.27;33.57;;;8.10;99.90;;;;;;5005712;28;20046;-30
2021/12/12 10:52:09;;;;;;;87.40;34.03;;;8.10;99.90;;;;;;5025402;28;20049;-30
2021/12/12 10:54:45;;;;;;;83.70;30.97;;;8.20;99.90;;;;;;5004583;28;20103;-30
2021/12/12 10:57:16;;;;;;;86.37;32.60;;;8.30;99.90;;;;;;4989154;28;20042;-30
2021/12/12 10:59:48;;;;;;;56.50;23.92;;;8.20;99.90;;;;;;5003248;28;20111;-30
2021/12/12 11:02:17;;;;;;;66.77;29.53;;;8.20;99.90;;;;;;5014487;28;20041;-31
2021/12/12 11:04:48;;;;;;;76.03;30.60;;;8.30;99.90;;;;;;5013902;28;20046;-30
2021/12/12 11:07:23;;;;;;;75.40;30.33;;;8.30;99.90;;;;;;4994329;28;20065;-30
2021/12/12 11:10:12;;;;;;;67.63;28.63;;;8.40;99.90;;;;;;5007527;28;20149;-30
2021/12/12 11:12:48;;;;;;;66.33;27.27;;;8.40;99.90;;;;;;4997666;28;20049;-30
2021/12/12 11:15:22;;;;;;;72.60;28.20;;;8.40;99.90;;;;;;5020133;28;20076;-31
2021/12/12 11:17:58;;;;;;;77.60;29.97;;;8.40;99.90;;;;;;4993439;28;20046;-30
2021/12/12 11:20:35;;;;;;;77.67;28.23;;;8.40;99.90;;;;;;5016904;28;20069;-30
2021/12/12 11:23:07;;;;;;;68.03;26.13;;;8.50;99.90;;;;;;5010786;28;20123;-30
2021/12/12 11:25:56;;;;;;;72.43;28.57;;;8.50;99.90;;;;;;5016779;28;20143;-30
2021/12/12 11:28:35;;;;;;;63.13;26.33;;;8.60;99.90;;;;;;5000571;28;20057;-30
2021/12/12 11:31:11;;;;;;;61.30;26.70;;;8.60;99.90;;;;;;5016714;28;20049;-30
2021/12/12 11:33:38;;;;;;;64.67;25.87;;;8.60;99.90;;;;;;5018704;28;20139;-30
2021/12/12 11:36:08;;;;;;;62.77;26.10;;;8.60;99.90;;;;;;5020663;28;20270;-30
2021/12/12 11:38:53;;;;;;;52.20;22.90;;;8.70;99.90;;;;;;5004175;28;20156;-30
2021/12/12 11:41:29;;;;;;;58.97;24.57;;;8.80;99.90;;;;;;5016291;28;20041;-30
2021/12/12 11:44:04;;;;;;;57.50;24.00;;;8.80;99.90;;;;;;5005658;28;20329;-30
2021/12/12 11:46:38;;;;;;;49.83;24.00;;;8.80;99.90;;;;;;4993416;28;20061;-30
2021/12/12 11:49:33;;;;;;;49.37;21.40;;;8.90;99.90;;;;;;5013847;28;20129;-30
2021/12/12 11:52:04;;;;;;;43.57;20.57;;;9.10;99.90;;;;;;5015435;28;20064;-31
2021/12/12 11:55:00;;;;;;;51.22;21.15;;;8.90;99.90;;;;;;5013435;28;20173;-30
2021/12/12 11:57:31;;;;;;;49.93;21.77;;;9.00;99.90;;;;;;4998467;28;20038;-30
2021/12/12 12:00:14;;;;;;;52.47;21.90;;;9.00;99.90;;;;;;5013144;28;20069;-30
2021/12/12 12:03:08;;;;;;;41.63;18.83;;;9.00;99.90;;;;;;5007246;28;20034;-30
2021/12/12 12:05:56;;;;;;;46.30;19.63;;;9.10;99.90;;;;;;5031581;28;20045;-30
2021/12/12 12:08:46;;;;;;;43.53;20.13;;;9.10;99.90;;;;;;5001431;28;20074;-31
2021/12/12 12:11:26;;;;;;;42.23;19.97;;;9.20;99.90;;;;;;5014856;28;20281;-30
2021/12/12 12:14:07;;;;;;;38.07;18.80;;;9.20;99.90;;;;;;5010804;28;20068;-30
2021/12/12 12:17:15;;;;;;;36.73;17.80;;;9.20;99.90;;;;;;5007834;28;20097;-30
2021/12/12 12:20:07;;;;;;;33.27;17.57;;;9.20;99.90;;;;;;5018073;28;20296;-30
2021/12/12 12:23:16;;;;;;;33.28;18.00;;;9.30;99.90;;;;;;5002299;28;20495;-30
2021/12/12 12:28:51;;;;;;;33.90;17.27;;;9.30;99.90;;;;;;5001395;28;20052;-30
2021/12/12 12:31:58;;;;;;;36.83;19.33;;;9.40;99.90;;;;;;5015244;28;20104;-31
2021/12/12 12:34:48;;;;;;;35.90;17.93;;;9.30;99.90;;;;;;5012711;28;20451;-30
2021/12/12 12:37:51;;;;;;;35.23;17.13;;;9.30;99.90;;;;;;4999378;28;20093;-30
2021/12/12 12:40:38;;;;;;;32.77;17.53;;;9.30;99.90;;;;;;5011760;28;20065;-30
2021/12/12 12:43:40;;;;;;;28.07;16.27;;;9.40;99.90;;;;;;5026854;28;20152;-31
2021/12/12 12:46:37;;;;;;;28.90;16.00;;;9.40;99.90;;;;;;5021930;28;20065;-31
2021/12/12 12:49:31;;;;;;;34.00;16.93;;;9.40;99.90;;;;;;5012982;28;20060;-30
2021/12/12 12:52:22;;;;;;;29.83;16.93;;;9.40;99.90;;;;;;5015496;28;20316;-30
2021/12/12 12:54:59;;;;;;;29.70;16.10;;;9.40;99.90;;;;;;5007402;28;20525;-31
2021/12/12 12:57:37;;;;;;;27.53;16.00;;;9.40;99.90;;;;;;5001253;28;20121;-30
2021/12/12 13:00:16;;;;;;;31.07;16.30;;;9.40;99.90;;;;;;5013286;28;20099;-30
2021/12/12 13:03:06;;;;;;;27.37;15.33;;;9.40;99.90;;;;;;5012579;28;20494;-31
2021/12/12 13:05:53;;;;;;;29.83;15.73;;;9.40;99.90;;;;;;5017228;28;20041;-31
2021/12/12 13:08:50;;;;;;;27.23;15.40;;;9.40;99.90;;;;;;4997623;28;20053;-30
2021/12/12 13:11:26;;;;;;;26.77;14.27;;;9.40;99.90;;;;;;5016598;28;20046;-30
2021/12/12 13:14:12;;;;;;;23.73;14.00;;;9.40;99.90;;;;;;5009354;28;20100;-30
2021/12/12 13:16:57;;;;;;;23.13;13.50;;;9.40;99.90;;;;;;5016876;28;20291;-31
2021/12/12 13:20:04;;;;;;;24.90;14.43;;;9.40;99.90;;;;;;5010330;28;20057;-30
2021/12/12 13:22:50;;;;;;;22.20;13.13;;;9.40;99.90;;;;;;5002881;28;20397;-31
2021/12/12 13:25:37;;;;;;;23.13;13.57;;;9.40;99.90;;;;;;5008832;28;20061;-30
2021/12/12 13:28:31;;;;;;;21.23;13.30;;;9.50;99.90;;;;;;4997124;28;20048;-31
2021/12/12 13:31:16;;;;;;;23.47;13.37;;;9.40;99.90;;;;;;5012480;28;20479;-30
2021/12/12 13:34:12;;;;;;;21.30;12.90;;;9.50;99.90;;;;;;5023441;28;20500;-30
2021/12/12 13:36:59;;;;;;;21.07;12.60;;;9.50;99.90;;;;;;5019569;28;20385;-30